createdAt,value
2022-07-29T00:01:41.985Z,1.00
2022-07-29T00:04:10.626Z,1.17
2022-07-29T00:06:39.273Z,1.10
2022-07-29T00:09:07.870Z,1.00
2022-07-29T00:11:37.889Z,1.00
2022-07-29T00:14:06.505Z,0.90
2022-07-29T00:16:35.204Z,1.00
2022-07-29T00:19:03.930Z,0.90
2022-07-29T00:21:32.627Z,1.13
2022-07-29T00:24:01.223Z,1.10
2022-07-29T00:26:32.583Z,1.37
2022-07-29T00:29:32.502Z,0.90
2022-07-29T00:31:51.942Z,1.00
2022-07-29T00:34:38.570Z,0.90
2022-07-29T00:37:07.938Z,1.03
2022-07-29T00:39:36.705Z,1.00
2022-07-29T00:42:05.693Z,1.30
2022-07-29T00:44:38.552Z,1.00
2022-07-29T00:47:07.420Z,1.00
2022-07-29T00:49:36.417Z,1.00
2022-07-29T00:52:05.084Z,0.87
2022-07-29T00:54:33.769Z,1.00
2022-07-29T00:57:02.889Z,0.93
2022-07-29T00:59:35.070Z,0.90
2022-07-29T01:02:05.845Z,1.03
2022-07-29T01:04:34.653Z,1.00
2022-07-29T01:07:04.342Z,1.00
2022-07-29T01:09:37.298Z,1.03
2022-07-29T01:12:16.218Z,1.10
2022-07-29T01:14:45.116Z,1.50
2022-07-29T01:17:16.769Z,1.30
2022-07-29T01:19:50.523Z,1.03
2022-07-29T01:22:27.922Z,1.00
2022-07-29T01:25:14.279Z,1.13
2022-07-29T01:27:50.363Z,1.30
2022-07-29T01:30:20.380Z,1.00
2022-07-29T01:32:54.299Z,1.10
2022-07-29T01:35:24.369Z,1.00
2022-07-29T01:37:54.686Z,1.00
2022-07-29T01:40:24.937Z,1.10
2022-07-29T01:42:55.120Z,1.13
2022-07-29T01:45:27.690Z,1.03
2022-07-29T01:47:59.333Z,1.10
2022-07-29T01:50:30.914Z,1.00
2022-07-29T01:53:01.485Z,1.40
2022-07-29T01:55:31.458Z,1.43
2022-07-29T01:58:01.400Z,1.60
2022-07-29T02:00:32.616Z,1.20
2022-07-29T02:03:01.813Z,1.10
2022-07-29T02:05:31.615Z,1.33
2022-07-29T02:08:00.686Z,1.07
2022-07-29T02:10:31.245Z,1.10
2022-07-29T02:13:01.079Z,1.20
2022-07-29T02:15:32.026Z,1.00
2022-07-29T02:18:02.973Z,0.90
2022-07-29T02:20:31.981Z,1.13
2022-07-29T02:23:01.517Z,1.20
2022-07-29T02:25:38.071Z,1.10
2022-07-29T02:28:08.473Z,1.00
2022-07-29T02:30:39.385Z,1.03
2022-07-29T02:33:08.443Z,1.20
2022-07-29T02:35:37.272Z,1.30
2022-07-29T02:38:23.978Z,1.20
2022-07-29T02:40:53.438Z,1.37
2022-07-29T02:43:23.840Z,1.50
2022-07-29T02:45:54.585Z,1.13
2022-07-29T02:48:29.921Z,1.30
2022-07-29T02:51:04.101Z,1.20
2022-07-29T02:53:36.053Z,1.10
2022-07-29T02:56:07.603Z,1.30
2022-07-29T02:58:37.101Z,1.73
2022-07-29T03:01:10.908Z,1.60
2022-07-29T03:03:40.540Z,1.17
2022-07-29T03:06:10.187Z,1.20
2022-07-29T03:09:00.382Z,1.13
2022-07-29T03:11:42.366Z,1.53
2022-07-29T03:14:20.298Z,1.50
2022-07-29T03:16:51.450Z,1.47
2022-07-29T03:19:20.207Z,1.50
2022-07-29T03:21:48.928Z,1.30
2022-07-29T03:24:27.254Z,1.47
2022-07-29T03:26:57.067Z,1.30
2022-07-29T03:29:25.723Z,1.20
2022-07-29T03:32:07.207Z,1.17
2022-07-29T03:34:36.271Z,1.30
2022-07-29T03:37:04.943Z,1.40
2022-07-29T03:39:36.099Z,1.50
2022-07-29T03:42:06.456Z,1.77
2022-07-29T03:44:35.489Z,1.40
2022-07-29T03:47:07.013Z,1.60
2022-07-29T03:49:37.674Z,1.80
2022-07-29T03:52:06.978Z,1.50
2022-07-29T03:54:35.867Z,1.77
2022-07-29T03:57:04.724Z,1.57
2022-07-29T03:59:33.797Z,1.80
2022-07-29T04:02:03.023Z,1.20
2022-07-29T04:04:34.855Z,1.30
2022-07-29T04:07:03.603Z,1.50
2022-07-29T04:09:32.527Z,1.27
2022-07-29T04:12:03.512Z,1.40
2022-07-29T04:14:32.855Z,1.27
2022-07-29T04:17:01.668Z,1.50
2022-07-29T04:19:30.415Z,1.40
2022-07-29T04:22:00.674Z,1.10
2022-07-29T04:24:29.297Z,1.27
2022-07-29T04:26:58.288Z,1.30
2022-07-29T04:29:26.978Z,1.40
2022-07-29T04:31:55.620Z,1.20
2022-07-29T04:34:28.298Z,1.50
2022-07-29T04:36:57.104Z,1.50
2022-07-29T04:39:29.646Z,1.53
2022-07-29T04:41:59.321Z,1.30
2022-07-29T04:44:29.184Z,1.50
2022-07-29T04:46:58.521Z,1.43
2022-07-29T04:49:27.334Z,1.70
2022-07-29T04:51:56.312Z,1.97
2022-07-29T04:54:25.707Z,1.50
2022-07-29T04:56:56.448Z,1.60
2022-07-29T04:59:25.842Z,1.50
2022-07-29T05:01:54.508Z,1.30
2022-07-29T05:04:23.930Z,1.50
2022-07-29T05:06:52.539Z,1.73
2022-07-29T05:09:21.166Z,1.47
2022-07-29T05:11:49.836Z,1.27
2022-07-29T05:14:20.320Z,1.27
2022-07-29T05:16:51.890Z,1.70
2022-07-29T05:19:20.529Z,1.30
2022-07-29T05:21:49.181Z,1.43
2022-07-29T05:24:18.257Z,1.20
2022-07-29T05:26:47.163Z,1.20
2022-07-29T05:29:43.328Z,1.20
2022-07-29T05:32:06.064Z,1.60
2022-07-29T05:34:34.696Z,1.50
2022-07-29T05:37:03.388Z,1.40
2022-07-29T05:39:48.815Z,1.50
2022-07-29T05:42:19.382Z,1.27
2022-07-29T05:44:48.333Z,1.30
2022-07-29T05:47:18.312Z,1.20
2022-07-29T05:49:47.137Z,1.73
2022-07-29T05:52:16.402Z,1.53
2022-07-29T05:54:45.044Z,1.80
2022-07-29T05:57:17.934Z,1.50
2022-07-29T05:59:46.556Z,1.47
2022-07-29T06:02:15.323Z,1.37
2022-07-29T06:04:45.684Z,1.40
2022-07-29T06:07:14.341Z,1.50
2022-07-29T06:09:42.944Z,1.50
2022-07-29T06:12:11.622Z,1.83
2022-07-29T06:14:40.259Z,1.73
2022-07-29T06:17:08.870Z,1.80
2022-07-29T06:19:37.591Z,1.70
2022-07-29T06:22:07.530Z,1.50
2022-07-29T06:24:36.155Z,1.60
2022-07-29T06:27:04.761Z,1.57
2022-07-29T06:29:33.384Z,1.70
2022-07-29T06:32:03.192Z,1.70
2022-07-29T06:34:32.020Z,1.53
2022-07-29T06:37:00.680Z,1.80
2022-07-29T06:39:30.724Z,1.70
2022-07-29T06:41:59.309Z,1.50
2022-07-29T06:44:27.926Z,1.37
2022-07-29T06:46:56.522Z,1.80
2022-07-29T06:49:27.026Z,1.53
2022-07-29T06:51:55.707Z,1.80
2022-07-29T06:54:24.349Z,1.97
2022-07-29T06:56:54.326Z,2.00
2022-07-29T06:59:29.815Z,1.60
2022-07-29T07:02:02.325Z,1.93
2022-07-29T07:04:30.961Z,1.50
2022-07-29T07:07:00.425Z,2.03
2022-07-29T07:09:39.794Z,2.03
2022-07-29T07:12:10.851Z,2.03
2022-07-29T07:14:40.717Z,1.70
2022-07-29T07:17:09.334Z,2.43
2022-07-29T07:19:38.016Z,1.63
2022-07-29T07:22:06.682Z,2.00
2022-07-29T07:24:35.306Z,2.57
2022-07-29T07:27:03.913Z,2.27
2022-07-29T07:29:33.914Z,2.10
2022-07-29T07:32:02.591Z,2.20
2022-07-29T07:34:32.000Z,2.43
2022-07-29T07:37:00.625Z,2.10
2022-07-29T07:39:29.233Z,2.17
2022-07-29T07:41:57.878Z,2.00
2022-07-29T07:44:26.493Z,2.03
2022-07-29T07:46:56.470Z,2.43
2022-07-29T07:49:25.155Z,2.57
2022-07-29T07:51:53.913Z,2.30
2022-07-29T07:54:22.519Z,2.17
2022-07-29T07:56:53.398Z,1.90
2022-07-29T07:59:22.151Z,2.00
2022-07-29T08:01:56.342Z,1.93
2022-07-29T08:04:28.647Z,1.80
2022-07-29T08:06:58.285Z,2.20
2022-07-29T08:09:29.657Z,2.10
2022-07-29T08:11:58.920Z,2.10
2022-07-29T08:14:27.627Z,1.90
2022-07-29T08:16:56.312Z,1.80
2022-07-29T08:19:24.948Z,1.97
2022-07-29T08:21:55.463Z,1.90
2022-07-29T08:24:42.654Z,2.10
2022-07-29T08:27:33.569Z,2.10
2022-07-29T08:30:00.274Z,1.60
2022-07-29T08:32:51.996Z,2.17
2022-07-29T08:35:17.917Z,2.03
2022-07-29T08:37:48.101Z,2.03
2022-07-29T08:40:16.805Z,1.80
2022-07-29T08:42:45.433Z,1.90
2022-07-29T08:45:14.130Z,1.70
2022-07-29T08:47:42.730Z,2.20
2022-07-29T08:50:12.002Z,1.90
2022-07-29T08:52:41.378Z,2.30
2022-07-29T08:55:12.396Z,2.10
2022-07-29T08:57:49.632Z,2.00
2022-07-29T09:00:22.254Z,1.80
2022-07-29T09:02:53.819Z,2.60
2022-07-29T09:05:22.780Z,2.20
2022-07-29T09:07:51.502Z,2.00
2022-07-29T09:10:21.805Z,1.80
2022-07-29T09:12:50.718Z,1.90
2022-07-29T09:15:20.318Z,2.10
2022-07-29T09:17:50.007Z,2.20
2022-07-29T09:20:20.112Z,3.07
2022-07-29T09:22:50.270Z,2.10
2022-07-29T09:25:35.485Z,2.10
2022-07-29T09:28:12.630Z,1.80
2022-07-29T09:30:52.410Z,2.20
2022-07-29T09:33:21.166Z,1.67
2022-07-29T09:36:01.869Z,1.70
2022-07-29T09:38:30.754Z,1.80
2022-07-29T09:41:05.946Z,2.13
2022-07-29T09:43:36.744Z,1.80
2022-07-29T09:46:12.834Z,1.87
2022-07-29T09:48:41.642Z,1.93
2022-07-29T09:51:21.327Z,2.30
2022-07-29T09:53:51.288Z,1.97
2022-07-29T09:56:21.702Z,2.60
2022-07-29T09:59:07.647Z,2.30
2022-07-29T10:01:36.810Z,2.47
2022-07-29T10:04:05.545Z,2.23
2022-07-29T10:06:34.189Z,2.40
2022-07-29T10:09:12.301Z,2.63
2022-07-29T10:11:49.333Z,2.83
2022-07-29T10:14:20.581Z,2.10
2022-07-29T10:16:49.376Z,2.63
2022-07-29T10:19:18.313Z,2.30
2022-07-29T10:21:46.972Z,2.90
2022-07-29T10:24:15.664Z,2.60
2022-07-29T10:26:45.612Z,2.20
2022-07-29T10:29:14.972Z,2.60
2022-07-29T10:31:50.597Z,2.30
2022-07-29T10:34:23.568Z,2.40
2022-07-29T10:36:56.197Z,2.47
2022-07-29T10:39:41.660Z,2.40
2022-07-29T10:42:19.883Z,2.00
2022-07-29T10:44:49.507Z,2.40
2022-07-29T10:47:24.524Z,2.50
2022-07-29T10:50:01.291Z,2.10
2022-07-29T10:52:48.544Z,2.30
2022-07-29T10:55:32.250Z,2.20
2022-07-29T10:58:14.417Z,2.20
2022-07-29T11:00:43.112Z,2.10
2022-07-29T11:03:29.246Z,2.43
2022-07-29T11:06:00.205Z,2.13
2022-07-29T11:08:29.104Z,2.07
2022-07-29T11:11:17.478Z,1.97
2022-07-29T11:13:51.237Z,2.00
2022-07-29T11:16:22.996Z,1.80
2022-07-29T11:19:26.276Z,1.57
2022-07-29T11:21:58.451Z,1.83
2022-07-29T11:24:30.226Z,2.67
2022-07-29T11:27:28.565Z,2.20
2022-07-29T11:29:58.656Z,1.80
2022-07-29T11:32:40.006Z,1.57
2022-07-29T11:35:17.221Z,1.70
2022-07-29T11:37:55.375Z,1.57
2022-07-29T11:40:26.501Z,1.80
2022-07-29T11:42:55.193Z,1.60
2022-07-29T11:45:42.593Z,1.60
2022-07-29T11:48:31.627Z,2.00
2022-07-29T11:51:01.385Z,1.70
2022-07-29T11:53:33.108Z,2.27
2022-07-29T11:56:02.446Z,1.95
2022-07-29T11:58:31.982Z,2.20
2022-07-29T12:01:04.494Z,2.37
2022-07-29T12:03:36.657Z,2.10
2022-07-29T12:06:07.971Z,2.20
2022-07-29T12:08:44.027Z,2.50
2022-07-29T12:11:20.594Z,1.93
2022-07-29T12:13:50.906Z,2.10
2022-07-29T12:16:25.776Z,1.93
2022-07-29T12:18:59.400Z,1.88
2022-07-29T12:21:28.725Z,1.60
2022-07-29T12:24:09.068Z,1.90
2022-07-29T12:26:40.502Z,1.90
2022-07-29T12:29:15.415Z,1.65
2022-07-29T12:31:57.849Z,1.90
2022-07-29T12:34:29.127Z,1.70
2022-07-29T12:36:57.846Z,2.15
2022-07-29T12:39:29.017Z,1.90
2022-07-29T12:42:03.841Z,1.42
2022-07-29T12:44:46.138Z,2.35
2022-07-29T12:47:14.760Z,1.50
2022-07-29T12:49:43.365Z,1.80
2022-07-29T12:52:27.905Z,1.73
2022-07-29T12:54:57.844Z,1.50
2022-07-29T12:57:26.833Z,1.70
2022-07-29T13:00:02.270Z,1.80
2022-07-29T13:02:30.976Z,2.22
2022-07-29T13:05:00.277Z,1.52
2022-07-29T13:07:54.214Z,1.70
2022-07-29T13:10:23.907Z,2.10
2022-07-29T13:13:06.168Z,1.85
2022-07-29T13:15:35.334Z,2.40
2022-07-29T13:18:04.777Z,1.80
2022-07-29T13:20:34.080Z,1.70
2022-07-29T13:23:03.275Z,1.83
2022-07-29T13:25:34.249Z,1.80
2022-07-29T13:28:02.859Z,1.80
2022-07-29T13:30:31.470Z,2.10
2022-07-29T13:33:00.097Z,1.60
2022-07-29T13:35:30.615Z,1.80
2022-07-29T13:37:59.245Z,1.65
2022-07-29T13:40:27.910Z,1.80
2022-07-29T13:42:57.923Z,1.60
2022-07-29T13:45:29.082Z,1.60
2022-07-29T13:47:58.083Z,1.80
2022-07-29T13:50:26.692Z,2.03
2022-07-29T13:52:55.334Z,1.40
2022-07-29T13:55:23.998Z,1.63
2022-07-29T13:57:52.642Z,1.48
2022-07-29T14:00:24.485Z,1.30
2022-07-29T14:02:53.110Z,1.30
2022-07-29T14:05:21.729Z,1.30
2022-07-29T14:07:50.313Z,1.33
2022-07-29T14:10:20.256Z,1.38
2022-07-29T14:12:49.028Z,1.45
2022-07-29T14:15:18.229Z,1.23
2022-07-29T14:17:48.184Z,1.33
2022-07-29T14:20:17.476Z,1.13
2022-07-29T14:22:46.118Z,1.40
2022-07-29T14:25:15.683Z,1.30
2022-07-29T14:27:44.985Z,1.45
2022-07-29T14:30:14.044Z,1.20
2022-07-29T14:32:42.688Z,1.20
2022-07-29T14:35:12.703Z,1.20
2022-07-29T14:37:41.551Z,1.20
2022-07-29T14:40:11.461Z,1.30
2022-07-29T14:42:40.313Z,1.60
2022-07-29T14:45:10.003Z,1.20
2022-07-29T14:47:39.011Z,1.38
2022-07-29T14:50:08.299Z,1.23
2022-07-29T14:52:38.317Z,1.55
2022-07-29T14:55:19.880Z,1.40
2022-07-29T14:57:49.201Z,1.60
2022-07-29T15:00:18.431Z,1.50
2022-07-29T15:03:01.312Z,1.50
2022-07-29T15:05:30.826Z,1.48
2022-07-29T15:08:01.113Z,1.27
2022-07-29T15:10:29.960Z,1.17
2022-07-29T15:12:58.628Z,1.20
2022-07-29T15:15:27.355Z,1.57
2022-07-29T15:17:56.009Z,1.27
2022-07-29T15:20:26.148Z,1.70
2022-07-29T15:22:56.292Z,1.75
2022-07-29T15:25:28.138Z,1.30
2022-07-29T15:28:01.284Z,1.85
2022-07-29T15:30:33.637Z,1.63
2022-07-29T15:33:03.167Z,1.80
2022-07-29T15:35:32.057Z,1.37
2022-07-29T15:38:00.659Z,1.27
2022-07-29T15:40:31.058Z,1.80
2022-07-29T15:43:01.626Z,1.37
2022-07-29T15:45:31.736Z,1.67
2022-07-29T15:48:01.239Z,1.83
2022-07-29T15:50:29.872Z,1.57
2022-07-29T15:52:58.550Z,1.77
2022-07-29T15:55:27.300Z,1.60
2022-07-29T15:58:00.497Z,1.70
2022-07-29T16:00:29.451Z,1.80
2022-07-29T16:02:58.166Z,1.55
2022-07-29T16:05:29.510Z,1.77
2022-07-29T16:08:00.475Z,1.70
2022-07-29T16:10:29.092Z,1.70
2022-07-29T16:12:59.064Z,1.90
2022-07-29T16:15:27.746Z,1.60
2022-07-29T16:17:56.377Z,1.80
2022-07-29T16:20:25.350Z,1.73
2022-07-29T16:22:53.963Z,1.70
2022-07-29T16:25:38.361Z,1.97
2022-07-29T16:28:12.622Z,1.50
2022-07-29T16:30:41.278Z,1.70
2022-07-29T16:33:09.934Z,1.70
2022-07-29T16:35:40.372Z,1.60
2022-07-29T16:38:09.104Z,1.33
2022-07-29T16:40:38.837Z,1.60
2022-07-29T16:43:07.498Z,1.43
2022-07-29T16:45:45.133Z,1.67
2022-07-29T16:48:14.565Z,1.70
2022-07-29T16:50:43.755Z,1.60
2022-07-29T16:53:12.621Z,1.88
2022-07-29T16:55:42.068Z,1.75
2022-07-29T16:58:11.357Z,1.40
2022-07-29T17:00:41.477Z,1.85
2022-07-29T17:03:10.260Z,1.75
2022-07-29T17:05:52.796Z,1.75
2022-07-29T17:08:22.946Z,1.38
2022-07-29T17:10:51.873Z,2.00
2022-07-29T17:13:20.531Z,1.50
2022-07-29T17:15:50.526Z,2.47
2022-07-29T17:18:19.201Z,1.73
2022-07-29T17:20:47.830Z,1.23
2022-07-29T17:23:16.407Z,1.50
2022-07-29T17:25:45.104Z,1.65
2022-07-29T17:28:13.668Z,1.30
2022-07-29T17:30:42.596Z,1.30
2022-07-29T17:33:12.554Z,1.67
2022-07-29T17:35:58.969Z,1.67
2022-07-29T17:38:27.536Z,1.30
2022-07-29T17:40:56.389Z,1.40
2022-07-29T17:43:25.003Z,1.60
2022-07-29T17:45:56.820Z,1.30
2022-07-29T17:48:29.521Z,1.57
2022-07-29T17:50:58.472Z,1.73
2022-07-29T17:53:27.082Z,1.50
2022-07-29T17:55:58.008Z,1.37
2022-07-29T17:58:27.227Z,1.30
2022-07-29T18:00:55.913Z,1.63
2022-07-29T18:03:24.781Z,1.50
2022-07-29T18:05:54.838Z,1.70
2022-07-29T18:08:23.583Z,1.60
2022-07-29T18:10:52.727Z,1.40
2022-07-29T18:13:21.553Z,1.50
2022-07-29T18:15:50.329Z,1.93
2022-07-29T18:18:19.211Z,1.40
2022-07-29T18:20:47.846Z,1.50
2022-07-29T18:23:17.899Z,1.50
2022-07-29T18:25:46.484Z,1.50
2022-07-29T18:28:15.065Z,1.63
2022-07-29T18:30:44.928Z,1.97
2022-07-29T18:33:21.618Z,1.67
2022-07-29T18:35:51.790Z,1.70
2022-07-29T18:38:22.039Z,1.40
2022-07-29T18:40:50.816Z,1.53
2022-07-29T18:43:19.460Z,1.50
2022-07-29T18:45:49.604Z,1.87
2022-07-29T18:48:19.061Z,1.50
2022-07-29T18:50:47.703Z,1.30
2022-07-29T18:53:16.260Z,1.60
2022-07-29T18:55:46.362Z,1.03
2022-07-29T18:58:14.975Z,1.30
2022-07-29T19:00:43.603Z,1.40
2022-07-29T19:03:12.301Z,1.80
2022-07-29T19:05:42.150Z,1.27
2022-07-29T19:08:10.791Z,1.50
2022-07-29T19:10:39.397Z,1.33
2022-07-29T19:13:09.553Z,1.50
2022-07-29T19:15:42.147Z,1.40
2022-07-29T19:18:10.746Z,1.13
2022-07-29T19:20:39.349Z,1.57
2022-07-29T19:23:08.913Z,1.50
2022-07-29T19:25:53.541Z,1.40
2022-07-29T19:28:24.294Z,1.50
2022-07-29T19:30:53.197Z,1.30
2022-07-29T19:33:21.949Z,1.27
2022-07-29T19:35:54.724Z,1.30
2022-07-29T19:38:23.775Z,1.20
2022-07-29T19:40:52.495Z,1.30
2022-07-29T19:43:51.059Z,1.20
2022-07-29T19:46:11.140Z,1.20
2022-07-29T19:48:39.907Z,1.13
2022-07-29T19:51:08.560Z,1.20
2022-07-29T19:53:37.209Z,1.00
2022-07-29T19:56:06.123Z,1.10
2022-07-29T19:58:37.637Z,1.30
2022-07-29T20:01:10.746Z,1.20
2022-07-29T20:03:41.314Z,1.40
2022-07-29T20:06:09.965Z,1.10
2022-07-29T20:08:38.789Z,1.30
2022-07-29T20:11:07.585Z,1.20
2022-07-29T20:13:36.210Z,1.20
2022-07-29T20:16:08.103Z,1.20
2022-07-29T20:18:36.820Z,1.10
2022-07-29T20:21:06.913Z,1.20
2022-07-29T20:23:35.517Z,1.20
2022-07-29T20:26:08.681Z,1.23
2022-07-29T20:28:40.038Z,1.17
2022-07-29T20:31:08.943Z,1.20
2022-07-29T20:33:37.628Z,1.30
2022-07-29T20:36:08.105Z,1.43
2022-07-29T20:38:36.710Z,1.33
2022-07-29T20:41:06.012Z,1.70
2022-07-29T20:43:36.132Z,1.60
2022-07-29T20:46:08.065Z,1.90
2022-07-29T20:48:36.778Z,1.87
2022-07-29T20:51:05.410Z,1.70
2022-07-29T20:53:35.391Z,1.60
2022-07-29T20:56:03.955Z,1.70
2022-07-29T20:58:33.928Z,1.80
2022-07-29T21:01:02.912Z,1.90
2022-07-29T21:03:31.741Z,1.83
2022-07-29T21:06:00.381Z,1.73
2022-07-29T21:08:29.168Z,2.00
2022-07-29T21:10:59.105Z,1.97
2022-07-29T21:13:27.751Z,2.10
2022-07-29T21:16:00.889Z,2.20
2022-07-29T21:18:32.536Z,2.70
2022-07-29T21:21:02.042Z,1.80
2022-07-29T21:23:31.016Z,2.23
2022-07-29T21:26:01.000Z,1.90
2022-07-29T21:28:30.451Z,1.90
2022-07-29T21:31:00.096Z,1.80
2022-07-29T21:33:29.837Z,1.80
2022-07-29T21:36:15.333Z,1.90
2022-07-29T21:38:47.486Z,2.17
2022-07-29T21:41:17.413Z,2.50
2022-07-29T21:43:46.083Z,2.50
2022-07-29T21:46:16.494Z,2.30
2022-07-29T21:48:45.337Z,1.97
2022-07-29T21:51:13.949Z,2.30
2022-07-29T21:53:42.522Z,2.20
2022-07-29T21:56:14.986Z,2.27
2022-07-29T21:58:45.218Z,1.90
2022-07-29T22:01:14.699Z,1.90
2022-07-29T22:03:43.309Z,1.93
2022-07-29T22:06:16.672Z,2.00
2022-07-29T22:08:47.819Z,1.80
2022-07-29T22:11:16.781Z,1.90
2022-07-29T22:13:46.726Z,2.30
2022-07-29T22:16:15.665Z,2.00
2022-07-29T22:18:46.731Z,2.10
2022-07-29T22:21:15.750Z,2.10
2022-07-29T22:23:44.381Z,2.20
2022-07-29T22:26:13.012Z,2.10
2022-07-29T22:28:41.603Z,2.30
2022-07-29T22:31:12.137Z,2.33
2022-07-29T22:33:40.845Z,2.63
2022-07-29T22:36:10.401Z,2.33
2022-07-29T22:38:39.122Z,2.73
2022-07-29T22:41:07.811Z,2.57
2022-07-29T22:43:36.819Z,2.87
2022-07-29T22:46:05.466Z,3.00
2022-07-29T22:48:35.427Z,2.77
2022-07-29T22:51:04.001Z,3.03
2022-07-29T22:53:32.628Z,3.17
2022-07-29T22:56:01.225Z,3.00
2022-07-29T22:58:29.868Z,3.77
2022-07-29T23:00:58.555Z,4.50
2022-07-29T23:03:27.281Z,4.30
2022-07-29T23:05:57.257Z,3.70
2022-07-29T23:08:26.081Z,3.80
2022-07-29T23:10:54.673Z,3.53
2022-07-29T23:13:23.307Z,3.53
2022-07-29T23:15:51.965Z,3.83
2022-07-29T23:18:20.561Z,3.50
2022-07-29T23:20:49.132Z,3.50
2022-07-29T23:23:19.127Z,2.97
2022-07-29T23:25:48.886Z,3.33
2022-07-29T23:28:18.389Z,3.07
2022-07-29T23:30:47.023Z,2.97
2022-07-29T23:33:15.724Z,3.10
2022-07-29T23:35:44.354Z,2.77
2022-07-29T23:38:12.983Z,2.70
2022-07-29T23:40:42.955Z,2.17
2022-07-29T23:43:11.542Z,2.27
2022-07-29T23:45:44.953Z,2.20
2022-07-29T23:48:17.225Z,2.20
2022-07-29T23:50:45.824Z,1.97
2022-07-29T23:53:14.450Z,1.90
2022-07-29T23:55:45.339Z,2.27
2022-07-29T23:58:13.930Z,2.00
